sensor_id;sensor_type;location;lat;lon;timestamp;pressure;altitude;pressure_sealevel;temperature;humidity
41234;BME280;26968;42.686;23.352;2023-09-19T00:02:21;95598.38;;;18.81;57.26
41234;BME280;26968;42.686;23.352;2023-09-19T00:04:46;95632.22;;;18.82;57.60
41234;BME280;26968;42.686;23.352;2023-09-19T00:07:13;95638.06;;;18.93;57.55
41234;BME280;26968;42.686;23.352;2023-09-19T00:09:39;95642.50;;;18.97;57.74
41234;BME280;26968;42.686;23.352;2023-09-19T00:12:05;95610.56;;;18.87;57.50
41234;BME280;26968;42.686;23.352;2023-09-19T00:14:31;95621.63;;;19.03;57.12
41234;BME280;26968;42.686;23.352;2023-09-19T00:17:00;95621.63;;;19.03;57.26
41234;BME280;26968;42.686;23.352;2023-09-19T00:19:26;95572.13;;;18.78;57.33
41234;BME280;26968;42.686;23.352;2023-09-19T00:21:51;95556.81;;;18.61;57.76
41234;BME280;26968;42.686;23.352;2023-09-19T00:24:18;95591.13;;;18.90;57.74
41234;BME280;26968;42.686;23.352;2023-09-19T00:26:43;95615.75;;;19.01;57.30
41234;BME280;26968;42.686;23.352;2023-09-19T00:29:12;95618.31;;;19.14;57.55
41234;BME280;26968;42.686;23.352;2023-09-19T00:31:43;95569.13;;;18.88;57.12
41234;BME280;26968;42.686;23.352;2023-09-19T00:34:09;95576.09;;;18.89;57.11
41234;BME280;26968;42.686;23.352;2023-09-19T00:36:36;95613.41;;;19.08;57.28
41234;BME280;26968;42.686;23.352;2023-09-19T00:39:04;95615.28;;;19.16;57.34
41234;BME280;26968;42.686;23.352;2023-09-19T00:41:31;95615.28;;;19.07;57.89
41234;BME280;26968;42.686;23.352;2023-09-19T00:43:57;95599.34;;;19.02;57.70
41234;BME280;26968;42.686;23.352;2023-09-19T00:46:22;95605.97;;;19.13;57.71
41234;BME280;26968;42.686;23.352;2023-09-19T00:48:48;95544.94;;;18.71;57.63
41234;BME280;26968;42.686;23.352;2023-09-19T00:51:15;95511.41;;;18.42;58.09
41234;BME280;26968;42.686;23.352;2023-09-19T00:53:45;95601.06;;;18.89;58.07
41234;BME280;26968;42.686;23.352;2023-09-19T00:56:11;95583.38;;;18.88;57.89
41234;BME280;26968;42.686;23.352;2023-09-19T00:58:37;95612.94;;;18.97;58.17
41234;BME280;26968;42.686;23.352;2023-09-19T01:01:04;95585.09;;;18.76;57.96
41234;BME280;26968;42.686;23.352;2023-09-19T01:03:33;95578.44;;;18.65;58.82
41234;BME280;26968;42.686;23.352;2023-09-19T01:05:59;95609.28;;;18.84;58.68
41234;BME280;26968;42.686;23.352;2023-09-19T01:08:26;95604.53;;;18.73;58.71
41234;BME280;26968;42.686;23.352;2023-09-19T01:11:09;95619.69;;;18.77;58.84
41234;BME280;26968;42.686;23.352;2023-09-19T01:14:03;95612.44;;;18.86;58.66
41234;BME280;26968;42.686;23.352;2023-09-19T01:19:59;95607.56;;;18.97;58.28
41234;BME280;26968;42.686;23.352;2023-09-19T01:22:41;95595.38;;;18.82;58.47
41234;BME280;26968;42.686;23.352;2023-09-19T01:31:23;95587.59;;;18.64;58.42
41234;BME280;26968;42.686;23.352;2023-09-19T01:33:54;95595.84;;;18.76;58.37
41234;BME280;26968;42.686;23.352;2023-09-19T01:36:23;95600.09;;;18.60;59.09
41234;BME280;26968;42.686;23.352;2023-09-19T01:38:50;95610.53;;;18.70;59.32
41234;BME280;26968;42.686;23.352;2023-09-19T01:41:29;95580.41;;;18.33;60.01
41234;BME280;26968;42.686;23.352;2023-09-19T01:43:56;95563.97;;;18.26;59.83
41234;BME280;26968;42.686;23.352;2023-09-19T01:46:25;95604.69;;;18.59;59.72
41234;BME280;26968;42.686;23.352;2023-09-19T01:52:11;95611.97;;;18.67;59.91
41234;BME280;26968;42.686;23.352;2023-09-19T01:54:48;95620.94;;;18.63;59.65
41234;BME280;26968;42.686;23.352;2023-09-19T01:57:22;95595.59;;;18.46;59.81
41234;BME280;26968;42.686;23.352;2023-09-19T01:59:54;95520.59;;;17.93;60.06
41234;BME280;26968;42.686;23.352;2023-09-19T02:02:22;95616.78;;;18.48;60.25
41234;BME280;26968;42.686;23.352;2023-09-19T02:04:49;95622.41;;;18.29;60.53
41234;BME280;26968;42.686;23.352;2023-09-19T02:07:16;95624.00;;;18.39;60.44
41234;BME280;26968;42.686;23.352;2023-09-19T02:09:42;95607.22;;;18.25;60.78
41234;BME280;26968;42.686;23.352;2023-09-19T02:12:09;95591.59;;;18.18;60.68
41234;BME280;26968;42.686;23.352;2023-09-19T02:14:35;95552.63;;;17.81;61.00
41234;BME280;26968;42.686;23.352;2023-09-19T02:17:04;95599.03;;;18.21;60.95
41234;BME280;26968;42.686;23.352;2023-09-19T02:19:36;95566.06;;;17.90;61.25
41234;BME280;26968;42.686;23.352;2023-09-19T02:22:04;95605.31;;;18.17;60.84
41234;BME280;26968;42.686;23.352;2023-09-19T02:24:33;95604.22;;;18.18;60.96
41234;BME280;26968;42.686;23.352;2023-09-19T02:26:59;95602.34;;;18.27;60.61
41234;BME280;26968;42.686;23.352;2023-09-19T02:29:29;95613.75;;;18.41;60.51
41234;BME280;26968;42.686;23.352;2023-09-19T02:31:55;95577.41;;;18.26;60.32
41234;BME280;26968;42.686;23.352;2023-09-19T02:34:21;95583.41;;;18.32;60.36
41234;BME280;26968;42.686;23.352;2023-09-19T02:36:47;95574.41;;;18.28;60.25
41234;BME280;26968;42.686;23.352;2023-09-19T02:39:13;95598.28;;;18.38;60.49
41234;BME280;26968;42.686;23.352;2023-09-19T02:41:38;95563.47;;;18.24;60.27
41234;BME280;26968;42.686;23.352;2023-09-19T02:44:04;95567.31;;;18.40;60.15
41234;BME280;26968;42.686;23.352;2023-09-19T02:46:35;95585.66;;;18.47;59.95
41234;BME280;26968;42.686;23.352;2023-09-19T02:49:02;95587.09;;;18.44;60.07
41234;BME280;26968;42.686;23.352;2023-09-19T02:51:30;95567.94;;;18.29;60.17
41234;BME280;26968;42.686;23.352;2023-09-19T02:53:56;95571.41;;;18.29;60.39
41234;BME280;26968;42.686;23.352;2023-09-19T02:56:22;95572.81;;;18.27;60.24
41234;BME280;26968;42.686;23.352;2023-09-19T02:58:47;95569.81;;;18.28;60.39
41234;BME280;26968;42.686;23.352;2023-09-19T03:01:14;95563.81;;;18.23;60.45
41234;BME280;26968;42.686;23.352;2023-09-19T03:03:40;95574.72;;;18.35;60.35
41234;BME280;26968;42.686;23.352;2023-09-19T03:06:06;95571.09;;;18.39;60.21
41234;BME280;26968;42.686;23.352;2023-09-19T03:08:35;95543.44;;;18.22;60.02
41234;BME280;26968;42.686;23.352;2023-09-19T03:11:03;95557.00;;;18.25;60.28
41234;BME280;26968;42.686;23.352;2023-09-19T03:13:29;95524.63;;;18.13;60.11
41234;BME280;26968;42.686;23.352;2023-09-19T03:15:56;95544.69;;;18.16;60.24
41234;BME280;26968;42.686;23.352;2023-09-19T03:18:26;95408.19;;;17.26;60.32
41234;BME280;26968;42.686;23.352;2023-09-19T03:20:55;95549.59;;;18.22;60.68
41234;BME280;26968;42.686;23.352;2023-09-19T03:23:20;95560.03;;;18.32;60.38
41234;BME280;26968;42.686;23.352;2023-09-19T03:25:46;95558.75;;;18.21;60.55
41234;BME280;26968;42.686;23.352;2023-09-19T03:28:13;95533.59;;;18.08;60.72
41234;BME280;26968;42.686;23.352;2023-09-19T03:30:38;95546.09;;;18.13;60.49
41234;BME280;26968;42.686;23.352;2023-09-19T03:33:04;95537.75;;;18.15;60.53
41234;BME280;26968;42.686;23.352;2023-09-19T03:35:30;95569.53;;;18.30;60.28
41234;BME280;26968;42.686;23.352;2023-09-19T03:37:56;95555.88;;;18.18;60.61
41234;BME280;26968;42.686;23.352;2023-09-19T03:40:21;95570.72;;;18.06;60.93
41234;BME280;26968;42.686;23.352;2023-09-19T03:42:48;95560.28;;;18.05;60.75
41234;BME280;26968;42.686;23.352;2023-09-19T03:45:14;95543.53;;;17.99;60.81
41234;BME280;26968;42.686;23.352;2023-09-19T03:47:40;95582.25;;;18.07;60.75
41234;BME280;26968;42.686;23.352;2023-09-19T03:50:06;95581.56;;;18.01;61.12
41234;BME280;26968;42.686;23.352;2023-09-19T03:52:33;95558.06;;;17.98;60.64
41234;BME280;26968;42.686;23.352;2023-09-19T03:54:59;95582.88;;;18.12;60.79
41234;BME280;26968;42.686;23.352;2023-09-19T03:57:25;95571.81;;;18.05;60.69
41234;BME280;26968;42.686;23.352;2023-09-19T03:59:51;95574.31;;;18.02;60.55
41234;BME280;26968;42.686;23.352;2023-09-19T04:02:19;95583.47;;;18.01;60.83
41234;BME280;26968;42.686;23.352;2023-09-19T04:04:48;95575.25;;;17.97;61.11
41234;BME280;26968;42.686;23.352;2023-09-19T04:07:14;95514.28;;;17.50;61.20
41234;BME280;26968;42.686;23.352;2023-09-19T04:09:39;95530.53;;;17.53;61.34
41234;BME280;26968;42.686;23.352;2023-09-19T04:12:05;95576.63;;;17.86;61.49
41234;BME280;26968;42.686;23.352;2023-09-19T04:14:30;95558.09;;;17.67;61.65
41234;BME280;26968;42.686;23.352;2023-09-19T04:16:56;95578.91;;;17.70;61.83
41234;BME280;26968;42.686;23.352;2023-09-19T04:19:21;95567.00;;;17.54;62.17
41234;BME280;26968;42.686;23.352;2023-09-19T04:21:47;95518.75;;;17.32;61.66
41234;BME280;26968;42.686;23.352;2023-09-19T04:24:12;95560.13;;;17.62;61.74
41234;BME280;26968;42.686;23.352;2023-09-19T04:26:38;95613.91;;;17.96;61.76
41234;BME280;26968;42.686;23.352;2023-09-19T04:29:04;95557.34;;;17.76;61.85
41234;BME280;26968;42.686;23.352;2023-09-19T04:31:31;95596.09;;;18.00;61.80
41234;BME280;26968;42.686;23.352;2023-09-19T04:33:57;95562.41;;;17.86;61.44
41234;BME280;26968;42.686;23.352;2023-09-19T04:36:24;95590.72;;;18.00;61.70
41234;BME280;26968;42.686;23.352;2023-09-19T04:38:53;95565.72;;;17.83;61.62
41234;BME280;26968;42.686;23.352;2023-09-19T04:41:19;95594.53;;;18.08;61.78
41234;BME280;26968;42.686;23.352;2023-09-19T04:43:44;95589.81;;;18.05;61.44
41234;BME280;26968;42.686;23.352;2023-09-19T04:46:09;95589.53;;;18.15;61.56
41234;BME280;26968;42.686;23.352;2023-09-19T04:48:35;95547.75;;;17.83;61.61
41234;BME280;26968;42.686;23.352;2023-09-19T04:51:02;95576.50;;;17.91;61.57
41234;BME280;26968;42.686;23.352;2023-09-19T04:53:28;95584.09;;;17.98;61.96
41234;BME280;26968;42.686;23.352;2023-09-19T04:55:54;95475.34;;;17.21;62.19
41234;BME280;26968;42.686;23.352;2023-09-19T04:58:21;95526.38;;;17.47;62.82
41234;BME280;26968;42.686;23.352;2023-09-19T05:00:47;95563.38;;;17.90;62.24
41234;BME280;26968;42.686;23.352;2023-09-19T05:03:13;95565.09;;;17.86;62.24
41234;BME280;26968;42.686;23.352;2023-09-19T05:05:39;95557.72;;;17.91;62.21
41234;BME280;26968;42.686;23.352;2023-09-19T05:08:06;95546.31;;;17.86;62.05
41234;BME280;26968;42.686;23.352;2023-09-19T05:10:34;95537.81;;;17.84;62.04
41234;BME280;26968;42.686;23.352;2023-09-19T05:13:00;95526.28;;;17.83;61.45
41234;BME280;26968;42.686;23.352;2023-09-19T05:15:26;95581.03;;;18.22;61.52
41234;BME280;26968;42.686;23.352;2023-09-19T05:17:52;95580.28;;;18.38;60.75
41234;BME280;26968;42.686;23.352;2023-09-19T05:20:20;95538.00;;;17.96;61.37
41234;BME280;26968;42.686;23.352;2023-09-19T05:23:09;95573.00;;;18.30;61.35
41234;BME280;26968;42.686;23.352;2023-09-19T05:25:38;95584.22;;;18.41;60.81
41234;BME280;26968;42.686;23.352;2023-09-19T05:28:06;95559.75;;;18.42;60.77
41234;BME280;26968;42.686;23.352;2023-09-19T05:30:33;95541.72;;;18.34;60.60
41234;BME280;26968;42.686;23.352;2023-09-19T05:32:59;95514.84;;;18.26;60.08
41234;BME280;26968;42.686;23.352;2023-09-19T05:35:24;95513.78;;;18.52;59.63
41234;BME280;26968;42.686;23.352;2023-09-19T05:37:51;95488.31;;;18.33;59.61
41234;BME280;26968;42.686;23.352;2023-09-19T05:40:18;95556.00;;;18.78;58.78
41234;BME280;26968;42.686;23.352;2023-09-19T05:42:44;95539.56;;;18.88;58.57
41234;BME280;26968;42.686;23.352;2023-09-19T05:45:10;95534.22;;;18.88;59.01
41234;BME280;26968;42.686;23.352;2023-09-19T05:47:38;95565.97;;;19.03;58.66
41234;BME280;26968;42.686;23.352;2023-09-19T05:50:06;95519.66;;;18.72;59.03
41234;BME280;26968;42.686;23.352;2023-09-19T05:52:33;95490.91;;;18.64;58.75
41234;BME280;26968;42.686;23.352;2023-09-19T05:54:58;95556.00;;;19.12;58.53
41234;BME280;26968;42.686;23.352;2023-09-19T05:57:25;95556.94;;;19.16;58.39
41234;BME280;26968;42.686;23.352;2023-09-19T05:59:50;95561.03;;;19.22;58.15
41234;BME280;26968;42.686;23.352;2023-09-19T06:02:16;95527.91;;;18.75;58.96
41234;BME280;26968;42.686;23.352;2023-09-19T06:04:41;95555.38;;;18.98;58.94
41234;BME280;26968;42.686;23.352;2023-09-19T06:07:09;95429.75;;;18.26;58.35
41234;BME280;26968;42.686;23.352;2023-09-19T06:09:35;95521.56;;;18.97;58.89
41234;BME280;26968;42.686;23.352;2023-09-19T06:12:00;95540.94;;;19.37;58.04
41234;BME280;26968;42.686;23.352;2023-09-19T06:14:29;95542.19;;;19.48;57.95
41234;BME280;26968;42.686;23.352;2023-09-19T06:16:56;95516.56;;;19.42;57.70
41234;BME280;26968;42.686;23.352;2023-09-19T06:19:21;95524.75;;;19.46;57.61
41234;BME280;26968;42.686;23.352;2023-09-19T06:21:48;95276.31;;;17.90;57.12
41234;BME280;26968;42.686;23.352;2023-09-19T06:24:14;95461.41;;;19.27;57.10
41234;BME280;26968;42.686;23.352;2023-09-19T06:26:40;95373.00;;;18.71;57.12
41234;BME280;26968;42.686;23.352;2023-09-19T06:29:05;95547.47;;;19.83;56.56
41234;BME280;26968;42.686;23.352;2023-09-19T06:31:33;95453.94;;;19.33;56.31
41234;BME280;26968;42.686;23.352;2023-09-19T06:33:58;95515.03;;;19.79;56.45
41234;BME280;26968;42.686;23.352;2023-09-19T06:36:24;95327.53;;;18.66;56.65
41234;BME280;26968;42.686;23.352;2023-09-19T06:38:50;95479.44;;;19.74;56.46
41234;BME280;26968;42.686;23.352;2023-09-19T06:41:19;95522.56;;;19.94;56.33
41234;BME280;26968;42.686;23.352;2023-09-19T06:43:50;95454.09;;;19.37;56.53
41234;BME280;26968;42.686;23.352;2023-09-19T06:46:18;95535.72;;;19.96;56.26
41234;BME280;26968;42.686;23.352;2023-09-19T06:48:44;95519.28;;;19.89;56.31
41234;BME280;26968;42.686;23.352;2023-09-19T06:51:10;95449.31;;;19.51;56.00
41234;BME280;26968;42.686;23.352;2023-09-19T06:53:35;95515.09;;;20.00;56.20
41234;BME280;26968;42.686;23.352;2023-09-19T06:56:02;95466.69;;;19.91;55.79
41234;BME280;26968;42.686;23.352;2023-09-19T06:58:28;95526.94;;;20.37;55.35
41234;BME280;26968;42.686;23.352;2023-09-19T07:00:53;95503.59;;;20.20;54.44
41234;BME280;26968;42.686;23.352;2023-09-19T07:03:19;95555.81;;;20.57;54.51
41234;BME280;26968;42.686;23.352;2023-09-19T07:05:48;95516.94;;;20.37;54.22
41234;BME280;26968;42.686;23.352;2023-09-19T07:08:14;95544.31;;;20.69;53.89
41234;BME280;26968;42.686;23.352;2023-09-19T07:10:41;95380.41;;;19.67;53.79
41234;BME280;26968;42.686;23.352;2023-09-19T07:13:08;95498.13;;;20.58;53.54
41234;BME280;26968;42.686;23.352;2023-09-19T07:15:38;95484.97;;;20.36;53.99
41234;BME280;26968;42.686;23.352;2023-09-19T07:18:13;95444.00;;;20.22;54.06
41234;BME280;26968;42.686;23.352;2023-09-19T07:20:40;95478.13;;;20.38;54.16
41234;BME280;26968;42.686;23.352;2023-09-19T07:23:11;95549.56;;;21.07;53.72
41234;BME280;26968;42.686;23.352;2023-09-19T07:25:39;95538.34;;;21.05;53.47
41234;BME280;26968;42.686;23.352;2023-09-19T07:28:05;95551.69;;;21.22;52.97
41234;BME280;26968;42.686;23.352;2023-09-19T07:30:30;95554.38;;;21.01;53.34
41234;BME280;26968;42.686;23.352;2023-09-19T07:32:56;95469.78;;;20.52;53.35
41234;BME280;26968;42.686;23.352;2023-09-19T07:35:27;95473.72;;;20.55;53.31
41234;BME280;26968;42.686;23.352;2023-09-19T07:37:53;95546.09;;;20.86;53.50
41234;BME280;26968;42.686;23.352;2023-09-19T07:40:19;95487.28;;;20.67;52.65
41234;BME280;26968;42.686;23.352;2023-09-19T07:42:45;95524.63;;;21.10;52.27
41234;BME280;26968;42.686;23.352;2023-09-19T07:45:12;95547.91;;;21.35;51.62
41234;BME280;26968;42.686;23.352;2023-09-19T07:47:50;95501.72;;;21.16;51.12
41234;BME280;26968;42.686;23.352;2023-09-19T07:50:17;95534.63;;;21.30;51.26
41234;BME280;26968;42.686;23.352;2023-09-19T07:53:06;95511.03;;;21.27;51.13
41234;BME280;26968;42.686;23.352;2023-09-19T07:55:31;95549.31;;;21.53;50.67
41234;BME280;26968;42.686;23.352;2023-09-19T07:57:59;95485.72;;;21.20;50.04
41234;BME280;26968;42.686;23.352;2023-09-19T08:00:25;95518.03;;;21.40;50.12
41234;BME280;26968;42.686;23.352;2023-09-19T08:02:50;95562.56;;;21.46;50.03
41234;BME280;26968;42.686;23.352;2023-09-19T08:05:17;95519.78;;;21.36;49.92
41234;BME280;26968;42.686;23.352;2023-09-19T08:07:45;95479.44;;;21.28;49.64
41234;BME280;26968;42.686;23.352;2023-09-19T08:10:14;95454.47;;;21.18;50.20
41234;BME280;26968;42.686;23.352;2023-09-19T08:12:44;95526.38;;;21.60;50.05
41234;BME280;26968;42.686;23.352;2023-09-19T08:15:16;95505.47;;;21.56;50.29
41234;BME280;26968;42.686;23.352;2023-09-19T08:17:42;95535.19;;;21.81;50.08
41234;BME280;26968;42.686;23.352;2023-09-19T08:20:09;95526.28;;;21.68;51.18
41234;BME280;26968;42.686;23.352;2023-09-19T08:22:49;95489.50;;;21.64;51.02
41234;BME280;26968;42.686;23.352;2023-09-19T08:25:17;95527.53;;;21.83;50.50
41234;BME280;26968;42.686;23.352;2023-09-19T08:27:46;95524.66;;;22.00;50.82
41234;BME280;26968;42.686;23.352;2023-09-19T08:30:20;95468.81;;;21.68;50.53
41234;BME280;26968;42.686;23.352;2023-09-19T08:32:49;95512.59;;;21.98;50.19
41234;BME280;26968;42.686;23.352;2023-09-19T08:35:15;95488.28;;;21.73;51.00
41234;BME280;26968;42.686;23.352;2023-09-19T08:37:44;95468.94;;;21.71;50.91
41234;BME280;26968;42.686;23.352;2023-09-19T08:40:11;95478.84;;;21.79;49.68
41234;BME280;26968;42.686;23.352;2023-09-19T08:42:51;95532.97;;;22.31;49.40
41234;BME280;26968;42.686;23.352;2023-09-19T08:45:19;95537.59;;;22.19;49.50
41234;BME280;26968;42.686;23.352;2023-09-19T08:50:33;95530.69;;;22.46;49.31
41234;BME280;26968;42.686;23.352;2023-09-19T08:53:08;95495.34;;;22.39;49.12
41234;BME280;26968;42.686;23.352;2023-09-19T08:55:36;95381.78;;;21.59;48.34
41234;BME280;26968;42.686;23.352;2023-09-19T08:58:06;95477.22;;;22.39;48.40
41234;BME280;26968;42.686;23.352;2023-09-19T09:00:36;95403.00;;;22.09;48.55
41234;BME280;26968;42.686;23.352;2023-09-19T09:03:03;95455.44;;;22.60;48.45
41234;BME280;26968;42.686;23.352;2023-09-19T09:05:32;95500.91;;;22.82;48.52
41234;BME280;26968;42.686;23.352;2023-09-19T09:08:00;95411.06;;;22.33;47.74
41234;BME280;26968;42.686;23.352;2023-09-19T09:10:29;95483.06;;;22.93;48.02
41234;BME280;26968;42.686;23.352;2023-09-19T09:12:54;95505.41;;;23.18;48.05
41234;BME280;26968;42.686;23.352;2023-09-19T09:15:22;95477.84;;;23.00;47.83
41234;BME280;26968;42.686;23.352;2023-09-19T09:17:52;95477.44;;;23.14;47.36
41234;BME280;26968;42.686;23.352;2023-09-19T09:20:21;95499.38;;;23.53;47.71
41234;BME280;26968;42.686;23.352;2023-09-19T09:22:56;95492.81;;;23.54;46.45
41234;BME280;26968;42.686;23.352;2023-09-19T09:25:51;95491.25;;;23.68;46.47
41234;BME280;26968;42.686;23.352;2023-09-19T09:28:27;95476.75;;;23.76;45.99
41234;BME280;26968;42.686;23.352;2023-09-19T09:30:54;95478.22;;;23.58;45.75
41234;BME280;26968;42.686;23.352;2023-09-19T09:33:21;95476.84;;;23.80;45.47
41234;BME280;26968;42.686;23.352;2023-09-19T09:35:51;95490.13;;;23.85;45.70
41234;BME280;26968;42.686;23.352;2023-09-19T09:38:21;95390.88;;;23.45;45.36
41234;BME280;26968;42.686;23.352;2023-09-19T09:40:52;95477.59;;;23.96;45.08
41234;BME280;26968;42.686;23.352;2023-09-19T09:43:37;95413.78;;;23.79;45.37
41234;BME280;26968;42.686;23.352;2023-09-19T09:46:12;95459.25;;;24.21;45.49
41234;BME280;26968;42.686;23.352;2023-09-19T09:48:59;95462.28;;;24.35;45.11
41234;BME280;26968;42.686;23.352;2023-09-19T09:52:02;95443.44;;;24.42;44.49
41234;BME280;26968;42.686;23.352;2023-09-19T09:55:04;95461.59;;;24.77;43.92
41234;BME280;26968;42.686;23.352;2023-09-19T09:57:34;95410.72;;;24.51;43.68
41234;BME280;26968;42.686;23.352;2023-09-19T10:00:00;95442.97;;;24.75;43.50
41234;BME280;26968;42.686;23.352;2023-09-19T10:02:38;95452.13;;;24.86;43.62
41234;BME280;26968;42.686;23.352;2023-09-19T10:07:39;95455.41;;;25.15;43.11
41234;BME280;26968;42.686;23.352;2023-09-19T10:10:07;95391.59;;;24.63;42.74
41234;BME280;26968;42.686;23.352;2023-09-19T10:12:55;95381.69;;;24.51;42.75
41234;BME280;26968;42.686;23.352;2023-09-19T10:15:31;95393.81;;;24.57;43.31
41234;BME280;26968;42.686;23.352;2023-09-19T10:18:01;95262.13;;;23.79;43.49
41234;BME280;26968;42.686;23.352;2023-09-19T10:20:28;95354.22;;;24.34;43.08
41234;BME280;26968;42.686;23.352;2023-09-19T10:23:10;95348.53;;;24.39;43.10
41234;BME280;26968;42.686;23.352;2023-09-19T10:25:40;95442.34;;;25.01;43.12
41234;BME280;26968;42.686;23.352;2023-09-19T10:28:08;95427.66;;;25.02;43.65
41234;BME280;26968;42.686;23.352;2023-09-19T10:30:44;95417.06;;;24.97;42.65
41234;BME280;26968;42.686;23.352;2023-09-19T10:33:12;95419.22;;;25.07;42.38
41234;BME280;26968;42.686;23.352;2023-09-19T10:35:42;95373.50;;;24.90;42.51
41234;BME280;26968;42.686;23.352;2023-09-19T10:38:10;95394.03;;;25.10;42.49
41234;BME280;26968;42.686;23.352;2023-09-19T10:40:37;95431.75;;;25.15;42.46
41234;BME280;26968;42.686;23.352;2023-09-19T10:43:06;95435.63;;;25.14;42.54
41234;BME280;26968;42.686;23.352;2023-09-19T10:45:34;95389.28;;;24.84;42.42
41234;BME280;26968;42.686;23.352;2023-09-19T10:48:01;95354.34;;;24.60;42.84
41234;BME280;26968;42.686;23.352;2023-09-19T10:51:15;95428.34;;;24.99;43.47
41234;BME280;26968;42.686;23.352;2023-09-19T10:53:20;95420.28;;;25.03;42.92
41234;BME280;26968;42.686;23.352;2023-09-19T10:55:58;95419.44;;;24.98;43.27
41234;BME280;26968;42.686;23.352;2023-09-19T10:58:29;95414.78;;;24.99;43.05
41234;BME280;26968;42.686;23.352;2023-09-19T11:00:58;95414.16;;;24.86;43.35
41234;BME280;26968;42.686;23.352;2023-09-19T11:03:41;95313.16;;;24.32;44.18
41234;BME280;26968;42.686;23.352;2023-09-19T11:06:13;95417.34;;;25.11;44.89
41234;BME280;26968;42.686;23.352;2023-09-19T11:09:01;95417.41;;;25.15;44.11
41234;BME280;26968;42.686;23.352;2023-09-19T11:30:33;95385.16;;;25.32;42.96
41234;BME280;26968;42.686;23.352;2023-09-19T11:33:18;95387.00;;;25.51;42.47
41234;BME280;26968;42.686;23.352;2023-09-19T11:36:12;95381.09;;;25.68;42.20
41234;BME280;26968;42.686;23.352;2023-09-19T11:46:30;95193.03;;;24.96;41.14
41234;BME280;26968;42.686;23.352;2023-09-19T11:49:08;95231.19;;;25.07;41.48
41234;BME280;26968;42.686;23.352;2023-09-19T11:51:41;95344.97;;;26.21;41.63
41234;BME280;26968;42.686;23.352;2023-09-19T11:54:11;95189.97;;;25.24;41.47
41234;BME280;26968;42.686;23.352;2023-09-19T11:56:44;95092.31;;;24.97;41.10
41234;BME280;26968;42.686;23.352;2023-09-19T11:59:11;95203.25;;;25.89;39.66
41234;BME280;26968;42.686;23.352;2023-09-19T12:01:38;95241.50;;;26.40;39.47
41234;BME280;26968;42.686;23.352;2023-09-19T12:04:11;95137.69;;;25.90;39.40
41234;BME280;26968;42.686;23.352;2023-09-19T12:06:38;95351.72;;;27.38;39.48
41234;BME280;26968;42.686;23.352;2023-09-19T12:09:12;95211.34;;;26.96;38.24
41234;BME280;26968;42.686;23.352;2023-09-19T12:11:42;95107.31;;;26.66;37.66
41234;BME280;26968;42.686;23.352;2023-09-19T12:14:11;95094.72;;;26.91;37.31
41234;BME280;26968;42.686;23.352;2023-09-19T12:16:37;95251.06;;;28.28;36.99
41234;BME280;26968;42.686;23.352;2023-09-19T12:19:21;95321.41;;;28.95;36.28
41234;BME280;26968;42.686;23.352;2023-09-19T12:22:03;95182.34;;;27.94;35.85
41234;BME280;26968;42.686;23.352;2023-09-19T12:24:32;95126.69;;;27.84;35.14
41234;BME280;26968;42.686;23.352;2023-09-19T12:27:04;94950.50;;;26.98;35.34
41234;BME280;26968;42.686;23.352;2023-09-19T12:29:31;94933.91;;;27.39;35.59
41234;BME280;26968;42.686;23.352;2023-09-19T12:31:58;95172.78;;;29.17;34.25
41234;BME280;26968;42.686;23.352;2023-09-19T12:34:27;95058.22;;;28.60;34.48
41234;BME280;26968;42.686;23.352;2023-09-19T12:37:13;95296.66;;;30.37;33.54
41234;BME280;26968;42.686;23.352;2023-09-19T12:40:07;94921.88;;;28.11;33.36
41234;BME280;26968;42.686;23.352;2023-09-19T12:42:41;95100.09;;;29.62;33.00
41234;BME280;26968;42.686;23.352;2023-09-19T12:45:13;95167.53;;;29.93;33.03
41234;BME280;26968;42.686;23.352;2023-09-19T12:47:40;95153.84;;;30.04;32.96
41234;BME280;26968;42.686;23.352;2023-09-19T12:50:13;95140.41;;;30.27;31.71
41234;BME280;26968;42.686;23.352;2023-09-19T12:52:52;95264.19;;;31.15;31.68
41234;BME280;26968;42.686;23.352;2023-09-19T12:55:31;95292.59;;;31.35;31.33
41234;BME280;26968;42.686;23.352;2023-09-19T12:58:14;95293.94;;;31.65;30.92
41234;BME280;26968;42.686;23.352;2023-09-19T13:00:45;95283.19;;;31.81;30.88
41234;BME280;26968;42.686;23.352;2023-09-19T13:06:00;95279.41;;;31.68;31.30
41234;BME280;26968;42.686;23.352;2023-09-19T13:08:31;95185.06;;;31.24;31.51
41234;BME280;26968;42.686;23.352;2023-09-19T13:13:44;95251.41;;;32.21;31.09
41234;BME280;26968;42.686;23.352;2023-09-19T13:16:11;95268.72;;;32.18;30.76
41234;BME280;26968;42.686;23.352;2023-09-19T13:18:55;95257.00;;;32.44;30.55
41234;BME280;26968;42.686;23.352;2023-09-19T13:21:31;95186.22;;;31.98;30.33
41234;BME280;26968;42.686;23.352;2023-09-19T13:24:25;95173.88;;;32.17;29.97
41234;BME280;26968;42.686;23.352;2023-09-19T13:26:55;95196.44;;;32.28;29.92
41234;BME280;26968;42.686;23.352;2023-09-19T13:29:21;95179.94;;;32.32;30.22
41234;BME280;26968;42.686;23.352;2023-09-19T13:31:51;95248.53;;;32.62;30.33
41234;BME280;26968;42.686;23.352;2023-09-19T13:34:19;95202.81;;;32.22;30.57
41234;BME280;26968;42.686;23.352;2023-09-19T13:36:45;95167.03;;;31.98;30.29
41234;BME280;26968;42.686;23.352;2023-09-19T13:39:16;95240.97;;;32.09;31.13
41234;BME280;26968;42.686;23.352;2023-09-19T13:41:44;95104.03;;;31.61;30.91
41234;BME280;26968;42.686;23.352;2023-09-19T13:44:11;95237.47;;;32.39;30.87
41234;BME280;26968;42.686;23.352;2023-09-19T13:46:37;95045.22;;;31.35;30.44
41234;BME280;26968;42.686;23.352;2023-09-19T13:49:02;95060.03;;;31.37;30.48
41234;BME280;26968;42.686;23.352;2023-09-19T13:51:31;95187.19;;;32.18;30.37
41234;BME280;26968;42.686;23.352;2023-09-19T13:53:57;95236.38;;;32.33;30.69